createdAt,value
2023-12-30T00:00:37.454Z,1001.09
2023-12-30T00:01:37.461Z,1001.08
2023-12-30T00:02:37.384Z,1001.05
2023-12-30T00:03:37.439Z,1001.12
2023-12-30T00:04:37.366Z,1001.10
2023-12-30T00:05:37.382Z,1000.97
2023-12-30T00:06:37.360Z,1001.04
2023-12-30T00:07:37.382Z,1001.04
2023-12-30T00:08:37.372Z,1001.00
2023-12-30T00:09:37.331Z,1001.06
2023-12-30T00:10:37.299Z,1001.02
2023-12-30T00:11:37.292Z,1001.08
2023-12-30T00:12:37.355Z,1001.11
2023-12-30T00:13:37.329Z,1001.08
2023-12-30T00:14:37.298Z,1001.13
2023-12-30T00:15:37.234Z,1001.18
2023-12-30T00:16:37.222Z,1001.13
2023-12-30T00:17:37.336Z,1001.11
2023-12-30T00:18:37.323Z,1001.20
2023-12-30T00:19:37.274Z,1001.21
2023-12-30T00:20:37.184Z,1001.12
2023-12-30T00:21:37.242Z,1001.23
2023-12-30T00:22:37.157Z,1001.19
2023-12-30T00:23:42.886Z,1001.22
2023-12-30T00:24:38.136Z,1001.31
2023-12-30T00:25:37.129Z,1001.31
2023-12-30T00:26:37.110Z,1001.27
2023-12-30T00:27:37.206Z,1001.26
2023-12-30T00:28:37.087Z,1001.27
2023-12-30T00:29:37.081Z,1001.32
2023-12-30T00:30:37.130Z,1001.30
2023-12-30T00:31:37.137Z,1001.37
2023-12-30T00:32:37.155Z,1001.38
2023-12-30T00:33:37.105Z,1001.39
2023-12-30T00:34:37.041Z,1001.30
2023-12-30T00:35:37.014Z,1001.38
2023-12-30T00:36:37.016Z,1001.40
2023-12-30T00:37:37.013Z,1001.39
2023-12-30T00:38:36.993Z,1001.45
2023-12-30T00:39:36.966Z,1001.42
2023-12-30T00:40:36.983Z,1001.45
2023-12-30T00:41:36.948Z,1001.41
2023-12-30T00:42:36.934Z,1001.45
2023-12-30T00:43:36.946Z,1001.47
2023-12-30T00:44:36.913Z,1001.52
2023-12-30T00:45:36.913Z,1001.48
2023-12-30T00:46:36.912Z,1001.49
2023-12-30T00:47:36.930Z,1001.52
2023-12-30T00:48:36.891Z,1001.47
2023-12-30T00:49:37.019Z,1001.52
2023-12-30T00:50:36.859Z,1001.52
2023-12-30T00:51:36.834Z,1001.56
2023-12-30T00:52:36.822Z,1001.51
2023-12-30T00:53:36.815Z,1001.55
2023-12-30T00:54:41.198Z,1001.51
2023-12-30T00:55:37.839Z,1001.49
2023-12-30T00:56:36.787Z,1001.50
2023-12-30T00:57:36.775Z,1001.53
2023-12-30T00:58:36.759Z,1001.51
2023-12-30T00:59:36.750Z,1001.57
2023-12-30T01:00:36.749Z,1001.52
2023-12-30T01:01:36.880Z,1001.49
2023-12-30T01:02:36.740Z,1001.52
2023-12-30T01:03:36.733Z,1001.61
2023-12-30T01:04:36.799Z,1001.61
2023-12-30T01:05:36.675Z,1001.60
2023-12-30T01:06:36.669Z,1001.69
2023-12-30T01:07:36.681Z,1001.74
2023-12-30T01:08:36.845Z,1001.82
2023-12-30T01:09:36.636Z,1001.72
2023-12-30T01:10:36.682Z,1001.69
2023-12-30T01:11:36.666Z,1001.81
2023-12-30T01:12:36.598Z,1001.81
2023-12-30T01:13:36.727Z,1001.82
2023-12-30T01:15:36.642Z,1001.78
2023-12-30T01:16:36.680Z,1001.86
2023-12-30T01:17:36.629Z,1001.82
2023-12-30T01:18:36.623Z,1001.86
2023-12-30T01:19:36.552Z,1001.87
2023-12-30T01:20:36.527Z,1001.81
2023-12-30T01:21:36.503Z,1001.85
2023-12-30T01:22:36.489Z,1001.93
2023-12-30T01:23:36.488Z,1001.91
2023-12-30T01:24:36.462Z,1001.84
2023-12-30T01:25:36.479Z,1001.95
2023-12-30T01:26:36.459Z,1001.94
2023-12-30T01:27:36.443Z,1001.93
2023-12-30T01:28:36.480Z,1001.93
2023-12-30T01:29:36.435Z,1001.96
2023-12-30T01:30:36.475Z,1001.92
2023-12-30T01:31:36.430Z,1001.96
2023-12-30T01:32:36.410Z,1001.98
2023-12-30T01:33:36.505Z,1001.94
2023-12-30T01:34:36.473Z,1001.97
2023-12-30T01:35:36.342Z,1001.98
2023-12-30T01:36:36.343Z,1001.96
2023-12-30T01:37:36.374Z,1002.03
2023-12-30T01:38:36.305Z,1002.00
2023-12-30T01:39:36.327Z,1002.07
2023-12-30T01:40:36.340Z,1002.12
2023-12-30T01:41:36.287Z,1002.06
2023-12-30T01:42:36.269Z,1001.99
2023-12-30T01:43:38.186Z,1002.03
2023-12-30T01:44:36.242Z,1002.03
2023-12-30T01:45:36.238Z,1002.07
2023-12-30T01:46:36.268Z,1002.04
2023-12-30T01:47:36.267Z,1002.01
2023-12-30T01:48:36.408Z,1002.06
2023-12-30T01:49:36.234Z,1002.09
2023-12-30T01:50:36.201Z,1002.07
2023-12-30T01:51:36.232Z,1002.12
2023-12-30T01:52:36.256Z,1002.19
2023-12-30T01:53:36.233Z,1002.15
2023-12-30T01:54:36.140Z,1002.13
2023-12-30T01:55:36.154Z,1002.16
2023-12-30T01:56:36.115Z,1002.20
2023-12-30T01:57:36.108Z,1002.19
2023-12-30T01:58:36.181Z,1002.25
2023-12-30T01:59:36.079Z,1002.24
2023-12-30T02:00:36.068Z,1002.27
2023-12-30T02:01:36.220Z,1002.21
2023-12-30T02:02:36.068Z,1002.23
2023-12-30T02:03:36.131Z,1002.25
2023-12-30T02:04:36.100Z,1002.30
2023-12-30T02:05:36.157Z,1002.30
2023-12-30T02:06:36.036Z,1002.39
2023-12-30T02:07:35.992Z,1002.38
2023-12-30T02:08:35.988Z,1002.37
2023-12-30T02:09:35.989Z,1002.32
2023-12-30T02:10:35.994Z,1002.37
2023-12-30T02:11:35.949Z,1002.38
2023-12-30T02:12:35.964Z,1002.35
2023-12-30T02:13:35.989Z,1002.38
2023-12-30T02:14:35.927Z,1002.38
2023-12-30T02:15:35.899Z,1002.42
2023-12-30T02:16:35.950Z,1002.39
2023-12-30T02:17:36.024Z,1002.33
2023-12-30T02:18:35.975Z,1002.34
2023-12-30T02:19:35.897Z,1002.38
2023-12-30T02:20:35.854Z,1002.44
2023-12-30T02:21:35.838Z,1002.49
2023-12-30T02:22:35.899Z,1002.43
2023-12-30T02:23:35.827Z,1002.39
2023-12-30T02:24:35.800Z,1002.50
2023-12-30T02:25:35.920Z,1002.42
2023-12-30T02:26:35.781Z,1002.43
2023-12-30T02:27:35.778Z,1002.45
2023-12-30T02:28:35.844Z,1002.51
2023-12-30T02:29:35.752Z,1002.44
2023-12-30T02:30:35.777Z,1002.45
2023-12-30T02:31:35.742Z,1002.64
2023-12-30T02:32:35.756Z,1002.50
2023-12-30T02:33:35.764Z,1002.49
2023-12-30T02:34:35.784Z,1002.61
2023-12-30T02:35:35.721Z,1002.57
2023-12-30T02:36:35.672Z,1002.61
2023-12-30T02:37:35.722Z,1002.62
2023-12-30T02:38:35.682Z,1002.60
2023-12-30T02:39:35.647Z,1002.63
2023-12-30T02:40:35.665Z,1002.59
2023-12-30T02:41:35.632Z,1002.64
2023-12-30T02:42:35.623Z,1002.56
2023-12-30T02:43:35.673Z,1002.60
2023-12-30T02:44:35.611Z,1002.66
2023-12-30T02:45:35.578Z,1002.62
2023-12-30T02:46:35.664Z,1002.66
2023-12-30T02:47:35.601Z,1002.71
2023-12-30T02:48:35.605Z,1002.68
2023-12-30T02:49:35.601Z,1002.75
2023-12-30T02:50:35.517Z,1002.68
2023-12-30T02:51:35.512Z,1002.71
2023-12-30T02:52:35.549Z,1002.67
2023-12-30T02:53:35.519Z,1002.70
2023-12-30T02:54:35.495Z,1002.69
2023-12-30T02:55:35.512Z,1002.76
2023-12-30T02:56:35.559Z,1002.70
2023-12-30T02:57:48.034Z,1002.67
2023-12-30T02:58:36.502Z,1002.65
2023-12-30T02:59:35.428Z,1002.71
2023-12-30T03:00:35.470Z,1002.66
2023-12-30T03:01:35.456Z,1002.71
2023-12-30T03:02:35.391Z,1002.67
2023-12-30T03:03:35.472Z,1002.66
2023-12-30T03:04:35.536Z,1002.75
2023-12-30T03:05:35.381Z,1002.81
2023-12-30T03:06:35.345Z,1002.84
2023-12-30T03:07:35.348Z,1002.84
2023-12-30T03:08:35.329Z,1002.83
2023-12-30T03:09:35.308Z,1002.80
2023-12-30T03:10:35.512Z,1002.79
2023-12-30T03:11:35.287Z,1002.79
2023-12-30T03:12:35.336Z,1002.80
2023-12-30T03:13:35.316Z,1002.77
2023-12-30T03:14:35.256Z,1002.79
2023-12-30T03:15:35.254Z,1002.82
2023-12-30T03:16:35.295Z,1002.88
2023-12-30T03:17:35.264Z,1002.89
2023-12-30T03:18:35.314Z,1002.86
2023-12-30T03:19:35.281Z,1002.91
2023-12-30T03:20:35.198Z,1002.98
2023-12-30T03:21:35.179Z,1002.92
2023-12-30T03:22:35.191Z,1002.89
2023-12-30T03:23:35.161Z,1002.94
2023-12-30T03:24:35.154Z,1003.02
2023-12-30T03:25:35.253Z,1003.03
2023-12-30T03:26:35.150Z,1003.07
2023-12-30T03:27:35.117Z,1002.97
2023-12-30T03:28:35.162Z,1003.02
2023-12-30T03:29:35.102Z,1003.04
2023-12-30T03:30:35.108Z,1003.09
2023-12-30T03:31:35.134Z,1002.97
2023-12-30T03:32:35.087Z,1002.94
2023-12-30T03:33:35.115Z,1002.96
2023-12-30T03:34:35.060Z,1002.93
2023-12-30T03:35:35.061Z,1002.89
2023-12-30T03:36:35.020Z,1002.89
2023-12-30T03:37:35.076Z,1002.89
2023-12-30T03:38:42.755Z,1002.87
2023-12-30T03:39:34.986Z,1002.80
2023-12-30T03:40:35.033Z,1002.84
2023-12-30T03:41:34.960Z,1002.81
2023-12-30T03:42:34.980Z,1002.86
2023-12-30T03:43:34.962Z,1002.85
2023-12-30T03:44:34.942Z,1002.84
2023-12-30T03:45:34.915Z,1002.83
2023-12-30T03:46:34.946Z,1002.83
2023-12-30T03:47:34.917Z,1002.84
2023-12-30T03:48:34.965Z,1002.80
2023-12-30T03:49:35.028Z,1002.80
2023-12-30T03:50:34.866Z,1002.82
2023-12-30T03:51:34.881Z,1002.77
2023-12-30T03:52:34.913Z,1002.82
2023-12-30T03:53:34.856Z,1002.81
2023-12-30T03:54:34.833Z,1002.86
2023-12-30T03:55:34.859Z,1002.79
2023-12-30T03:56:34.803Z,1002.78
2023-12-30T03:57:34.798Z,1002.81
2023-12-30T03:58:34.838Z,1002.86
2023-12-30T03:59:34.766Z,1002.89
2023-12-30T04:00:34.793Z,1002.88
2023-12-30T04:01:34.833Z,1002.91
2023-12-30T04:02:34.798Z,1002.83
2023-12-30T04:03:34.727Z,1002.93
2023-12-30T04:04:34.762Z,1002.92
2023-12-30T04:05:34.777Z,1002.93
2023-12-30T04:06:34.692Z,1002.96
2023-12-30T04:07:34.722Z,1003.00
2023-12-30T04:08:34.740Z,1002.90
2023-12-30T04:09:34.653Z,1002.92
2023-12-30T04:10:34.832Z,1003.01
2023-12-30T04:11:34.646Z,1002.96
2023-12-30T04:12:34.640Z,1002.94
2023-12-30T04:13:34.638Z,1002.95
2023-12-30T04:14:34.628Z,1002.96
2023-12-30T04:15:34.713Z,1002.96
2023-12-30T04:16:34.690Z,1003.01
2023-12-30T04:17:34.596Z,1002.97
2023-12-30T04:18:34.598Z,1003.01
2023-12-30T04:19:34.555Z,1002.98
2023-12-30T04:20:34.535Z,1002.99
2023-12-30T04:21:34.536Z,1003.01
2023-12-30T04:22:34.591Z,1003.03
2023-12-30T04:23:34.524Z,1002.93
2023-12-30T04:24:34.491Z,1003.05
2023-12-30T04:25:34.554Z,1003.04
2023-12-30T04:26:34.468Z,1002.96
2023-12-30T04:27:34.475Z,1003.06
2023-12-30T04:28:34.555Z,1003.10
2023-12-30T04:29:34.435Z,1003.07
2023-12-30T04:30:34.468Z,1002.94
2023-12-30T04:31:34.454Z,1003.02
2023-12-30T04:32:34.455Z,1003.06
2023-12-30T04:33:34.520Z,1002.94
2023-12-30T04:34:34.428Z,1003.05
2023-12-30T04:35:34.392Z,1003.08
2023-12-30T04:36:34.374Z,1003.06
2023-12-30T04:37:34.417Z,1003.10
2023-12-30T04:38:34.340Z,1003.07
2023-12-30T04:39:34.326Z,1003.08
2023-12-30T04:40:34.336Z,1003.07
2023-12-30T04:41:34.310Z,1003.08
2023-12-30T04:42:34.297Z,1003.11
2023-12-30T04:43:34.333Z,1003.16
2023-12-30T04:44:34.274Z,1003.17
2023-12-30T04:45:34.293Z,1003.19
2023-12-30T04:46:34.310Z,1003.18
2023-12-30T04:47:34.271Z,1003.28
2023-12-30T04:48:34.272Z,1003.22
2023-12-30T04:49:34.457Z,1003.23
2023-12-30T04:50:34.225Z,1003.23
2023-12-30T04:51:34.210Z,1003.21
2023-12-30T04:52:34.249Z,1003.21
2023-12-30T04:53:34.194Z,1003.14
2023-12-30T04:54:34.166Z,1003.17
2023-12-30T04:55:34.174Z,1003.11
2023-12-30T04:56:34.229Z,1003.14
2023-12-30T04:57:34.136Z,1003.14
2023-12-30T04:58:34.245Z,1003.19
2023-12-30T04:59:34.117Z,1003.19
2023-12-30T05:00:34.104Z,1003.17
2023-12-30T05:01:34.217Z,1003.17
2023-12-30T05:02:34.101Z,1003.14
2023-12-30T05:03:34.135Z,1003.20
2023-12-30T05:04:34.120Z,1003.16
2023-12-30T05:05:34.075Z,1003.17
2023-12-30T05:06:34.034Z,1003.21
2023-12-30T05:07:34.037Z,1003.13
2023-12-30T05:08:34.010Z,1003.18
2023-12-30T05:09:34.025Z,1003.15
2023-12-30T05:10:34.048Z,1003.23
2023-12-30T05:11:33.977Z,1003.25
2023-12-30T05:12:34.021Z,1003.26
2023-12-30T05:13:34.034Z,1003.26
2023-12-30T05:14:33.956Z,1003.24
2023-12-30T05:15:33.946Z,1003.30
2023-12-30T05:16:33.962Z,1003.32
2023-12-30T05:17:34.222Z,1003.29
2023-12-30T05:18:33.985Z,1003.36
2023-12-30T05:19:34.377Z,1003.35
2023-12-30T05:20:33.895Z,1003.36
2023-12-30T05:21:33.870Z,1003.34
2023-12-30T05:22:33.964Z,1003.40
2023-12-30T05:23:33.862Z,1003.39
2023-12-30T05:24:33.863Z,1003.42
2023-12-30T05:25:34.045Z,1003.39
2023-12-30T05:26:33.816Z,1003.33
2023-12-30T05:27:33.809Z,1003.38
2023-12-30T05:28:33.868Z,1003.40
2023-12-30T05:29:33.790Z,1003.41
2023-12-30T05:30:33.847Z,1003.41
2023-12-30T05:31:33.890Z,1003.42
2023-12-30T05:32:33.790Z,1003.42
2023-12-30T05:33:33.826Z,1003.46
2023-12-30T05:34:33.883Z,1003.47
2023-12-30T05:35:33.736Z,1003.47
2023-12-30T05:36:33.723Z,1003.50
2023-12-30T05:37:33.805Z,1003.46
2023-12-30T05:38:33.704Z,1003.51
2023-12-30T05:39:33.705Z,1003.57
2023-12-30T05:40:33.773Z,1003.58
2023-12-30T05:41:33.655Z,1003.56
2023-12-30T05:42:33.641Z,1003.63
2023-12-30T05:43:33.673Z,1003.63
2023-12-30T05:44:33.621Z,1003.62
2023-12-30T05:45:33.653Z,1003.63
2023-12-30T05:46:33.781Z,1003.62
2023-12-30T05:47:33.680Z,1003.65
2023-12-30T05:48:33.667Z,1003.57
2023-12-30T05:49:33.589Z,1003.57
2023-12-30T05:50:33.579Z,1003.66
2023-12-30T05:51:33.549Z,1003.63
2023-12-30T05:52:33.662Z,1003.66
2023-12-30T05:53:33.516Z,1003.70
2023-12-30T05:54:33.550Z,1003.66
2023-12-30T05:55:33.636Z,1003.68
2023-12-30T05:56:33.525Z,1003.65
2023-12-30T05:57:35.247Z,1003.59
2023-12-30T05:58:33.508Z,1003.64
2023-12-30T05:59:33.490Z,1003.65
2023-12-30T06:00:33.585Z,1003.70
2023-12-30T06:01:33.615Z,1003.70
2023-12-30T06:02:33.423Z,1003.78
2023-12-30T06:03:33.441Z,1003.72
2023-12-30T06:04:33.408Z,1003.81
2023-12-30T06:05:33.401Z,1003.82
2023-12-30T06:06:33.461Z,1003.79
2023-12-30T06:07:33.421Z,1003.75
2023-12-30T06:08:33.355Z,1003.87
2023-12-30T06:09:33.356Z,1003.89
2023-12-30T06:10:33.499Z,1003.90
2023-12-30T06:11:33.326Z,1003.83
2023-12-30T06:12:33.308Z,1003.89
2023-12-30T06:13:33.316Z,1003.95
2023-12-30T06:14:33.297Z,1003.96
2023-12-30T06:15:33.299Z,1003.94
2023-12-30T06:16:33.346Z,1003.97
2023-12-30T06:17:33.337Z,1004.00
2023-12-30T06:18:33.605Z,1004.02
2023-12-30T06:19:33.259Z,1004.00
2023-12-30T06:20:33.252Z,1004.03
2023-12-30T06:21:33.220Z,1004.09
2023-12-30T06:22:33.356Z,1004.12
2023-12-30T06:23:33.196Z,1004.04
2023-12-30T06:24:33.180Z,1004.05
2023-12-30T06:25:33.260Z,1004.04
2023-12-30T06:26:33.180Z,1004.11
2023-12-30T06:27:33.177Z,1004.07
2023-12-30T06:28:33.167Z,1004.14
2023-12-30T06:29:33.645Z,1004.11
2023-12-30T06:30:33.137Z,1004.13
2023-12-30T06:31:33.124Z,1004.20
2023-12-30T06:32:33.158Z,1004.15
2023-12-30T06:33:33.169Z,1004.19
2023-12-30T06:34:33.121Z,1004.19
2023-12-30T06:35:33.123Z,1004.11
2023-12-30T06:36:33.042Z,1004.18
2023-12-30T06:37:33.117Z,1004.19
2023-12-30T06:38:33.044Z,1004.19
2023-12-30T06:39:33.020Z,1004.25
2023-12-30T06:40:33.025Z,1004.20
2023-12-30T06:41:33.019Z,1004.22
2023-12-30T06:42:33.004Z,1004.17
2023-12-30T06:43:33.023Z,1004.20
2023-12-30T06:44:32.990Z,1004.19
2023-12-30T06:45:32.950Z,1004.29
2023-12-30T06:46:33.036Z,1004.27
2023-12-30T06:47:32.970Z,1004.25
2023-12-30T06:48:32.955Z,1004.27
2023-12-30T06:49:33.012Z,1004.31
2023-12-30T06:50:32.894Z,1004.25
2023-12-30T06:51:32.884Z,1004.21
2023-12-30T06:52:32.883Z,1004.25
2023-12-30T06:53:32.914Z,1004.31
2023-12-30T06:54:32.882Z,1004.32
2023-12-30T06:55:38.697Z,1004.35
2023-12-30T06:56:33.836Z,1004.33
2023-12-30T06:57:32.834Z,1004.36
2023-12-30T06:58:32.927Z,1004.39
2023-12-30T06:59:32.799Z,1004.30
2023-12-30T07:00:32.836Z,1004.41
2023-12-30T07:01:32.825Z,1004.36
2023-12-30T07:02:32.759Z,1004.36
2023-12-30T07:03:32.761Z,1004.42
2023-12-30T07:04:32.756Z,1004.39
2023-12-30T07:05:32.838Z,1004.39
2023-12-30T07:06:32.720Z,1004.31
2023-12-30T07:07:32.805Z,1004.43
2023-12-30T07:08:32.703Z,1004.45
2023-12-30T07:09:32.684Z,1004.42
2023-12-30T07:10:32.846Z,1004.40
2023-12-30T07:11:32.659Z,1004.41
2023-12-30T07:12:32.654Z,1004.44
2023-12-30T07:13:32.656Z,1004.47
2023-12-30T07:14:32.662Z,1004.47
2023-12-30T07:15:32.622Z,1004.47
2023-12-30T07:16:32.649Z,1004.54
2023-12-30T07:17:32.620Z,1004.50
2023-12-30T07:18:32.634Z,1004.53
2023-12-30T07:19:32.686Z,1004.46
2023-12-30T07:20:32.565Z,1004.52
2023-12-30T07:21:32.563Z,1004.52
2023-12-30T07:22:32.559Z,1004.58
2023-12-30T07:23:32.528Z,1004.58
2023-12-30T07:24:32.521Z,1004.60
2023-12-30T07:25:32.601Z,1004.55
2023-12-30T07:26:32.524Z,1004.61
2023-12-30T07:27:32.502Z,1004.64
2023-12-30T07:28:32.625Z,1004.58
2023-12-30T07:29:32.476Z,1004.60
2023-12-30T07:30:32.510Z,1004.67
2023-12-30T07:31:32.482Z,1004.57
2023-12-30T07:32:32.490Z,1004.62
2023-12-30T07:33:32.589Z,1004.63
2023-12-30T07:34:32.444Z,1004.60
2023-12-30T07:35:32.404Z,1004.64
2023-12-30T07:36:32.400Z,1004.70
2023-12-30T07:37:32.417Z,1004.67
2023-12-30T07:38:32.391Z,1004.67
2023-12-30T07:39:32.348Z,1004.73
2023-12-30T07:40:32.400Z,1004.81
2023-12-30T07:41:32.339Z,1004.75
2023-12-30T07:42:32.340Z,1004.72
2023-12-30T07:43:32.330Z,1004.75
2023-12-30T07:44:32.312Z,1004.80
2023-12-30T07:45:32.307Z,1004.77
2023-12-30T07:46:32.345Z,1004.87
2023-12-30T07:47:32.291Z,1004.90
2023-12-30T07:48:32.285Z,1004.93
2023-12-30T07:49:32.310Z,1004.93
2023-12-30T07:50:32.228Z,1004.94
2023-12-30T07:51:32.267Z,1004.92
2023-12-30T07:52:32.295Z,1004.93
2023-12-30T07:53:32.221Z,1004.98
2023-12-30T07:54:32.195Z,1005.05
2023-12-30T07:55:32.234Z,1004.95
2023-12-30T07:56:32.173Z,1004.93
2023-12-30T07:57:32.171Z,1004.98
2023-12-30T07:58:32.221Z,1005.02
2023-12-30T07:59:32.251Z,1005.02
2023-12-30T08:00:32.151Z,1004.99
2023-12-30T08:01:32.245Z,1005.01
2023-12-30T08:02:32.098Z,1005.05
2023-12-30T08:03:32.168Z,1005.04
2023-12-30T08:04:32.327Z,1005.16
2023-12-30T08:05:32.157Z,1005.07
2023-12-30T08:06:32.054Z,1005.14
2023-12-30T08:07:32.073Z,1005.11
2023-12-30T08:08:32.033Z,1005.08
2023-12-30T08:09:32.070Z,1005.12
2023-12-30T08:10:32.068Z,1005.14
2023-12-30T08:11:35.514Z,1005.08
2023-12-30T08:12:32.981Z,1005.10
2023-12-30T08:13:31.981Z,1005.05
2023-12-30T08:14:31.990Z,1005.09
2023-12-30T08:15:31.961Z,1005.14
2023-12-30T08:16:32.106Z,1005.13
2023-12-30T08:17:31.989Z,1005.21
2023-12-30T08:18:32.038Z,1005.23
2023-12-30T08:19:31.998Z,1005.28
2023-12-30T08:20:31.904Z,1005.26
2023-12-30T08:21:31.895Z,1005.24
2023-12-30T08:22:31.969Z,1005.34
2023-12-30T08:23:31.875Z,1005.36
2023-12-30T08:24:31.871Z,1005.24
2023-12-30T08:25:31.886Z,1005.33
2023-12-30T08:26:31.833Z,1005.40
2023-12-30T08:27:31.823Z,1005.30
2023-12-30T08:28:31.937Z,1005.31
2023-12-30T08:29:31.807Z,1005.35
2023-12-30T08:30:31.901Z,1005.25
2023-12-30T08:31:31.802Z,1005.36
2023-12-30T08:32:31.777Z,1005.30
2023-12-30T08:33:31.768Z,1005.32
2023-12-30T08:34:31.776Z,1005.29
2023-12-30T08:35:31.750Z,1005.27
2023-12-30T08:36:31.731Z,1005.30
2023-12-30T08:37:31.736Z,1005.32
2023-12-30T08:38:31.697Z,1005.29
2023-12-30T08:39:31.701Z,1005.38
2023-12-30T08:40:33.327Z,1005.43
2023-12-30T08:41:31.674Z,1005.42
2023-12-30T08:42:31.652Z,1005.44
2023-12-30T08:43:31.681Z,1005.47
2023-12-30T08:44:31.637Z,1005.50
2023-12-30T08:45:31.632Z,1005.49
2023-12-30T08:46:31.807Z,1005.48
2023-12-30T08:47:31.621Z,1005.52
2023-12-30T08:48:31.751Z,1005.54
2023-12-30T08:49:31.705Z,1005.54
2023-12-30T08:50:31.577Z,1005.57
2023-12-30T08:51:31.570Z,1005.61
2023-12-30T08:52:31.648Z,1005.71
2023-12-30T08:53:31.534Z,1005.76
2023-12-30T08:54:31.552Z,1005.69
2023-12-30T08:55:31.618Z,1005.74
2023-12-30T08:56:31.519Z,1005.60
2023-12-30T08:57:31.497Z,1005.65
2023-12-30T08:58:31.542Z,1005.76
2023-12-30T08:59:31.471Z,1005.74
2023-12-30T09:00:31.492Z,1005.68
2023-12-30T09:01:31.611Z,1005.77
2023-12-30T09:02:31.460Z,1005.78
2023-12-30T09:03:31.458Z,1005.75
2023-12-30T09:04:31.547Z,1005.78
2023-12-30T09:05:31.431Z,1005.84
2023-12-30T09:06:31.404Z,1005.77
2023-12-30T09:07:31.423Z,1005.79
2023-12-30T09:08:31.372Z,1005.87
2023-12-30T09:09:31.442Z,1005.87
2023-12-30T09:10:31.387Z,1005.93
2023-12-30T09:11:31.350Z,1005.94
2023-12-30T09:12:31.336Z,1006.05
2023-12-30T09:13:31.360Z,1005.95
2023-12-30T09:14:31.317Z,1006.00
2023-12-30T09:15:31.327Z,1006.05
2023-12-30T09:16:31.359Z,1006.00
2023-12-30T09:17:31.363Z,1006.06
2023-12-30T09:18:31.368Z,1005.98
2023-12-30T09:19:31.282Z,1005.95
2023-12-30T09:20:31.240Z,1006.00
2023-12-30T09:21:31.249Z,1005.99
2023-12-30T09:22:31.343Z,1006.03
2023-12-30T09:23:31.201Z,1005.98
2023-12-30T09:24:31.190Z,1006.08
2023-12-30T09:25:31.284Z,1006.10
2023-12-30T09:26:31.175Z,1006.04
2023-12-30T09:27:31.178Z,1006.01
2023-12-30T09:28:31.243Z,1006.05
2023-12-30T09:29:31.143Z,1006.01
2023-12-30T09:30:31.136Z,1005.96
2023-12-30T09:31:31.149Z,1005.94
2023-12-30T09:32:31.176Z,1006.02
2023-12-30T09:33:31.286Z,1006.05
2023-12-30T09:34:38.982Z,1006.05
2023-12-30T09:35:32.210Z,1006.02
2023-12-30T09:36:31.064Z,1006.06
2023-12-30T09:37:31.113Z,1005.96
2023-12-30T09:38:31.081Z,1005.97
2023-12-30T09:39:38.162Z,1006.04
2023-12-30T09:40:31.092Z,1005.94
2023-12-30T09:41:31.060Z,1005.98
2023-12-30T09:42:30.992Z,1006.01
2023-12-30T09:43:31.010Z,1005.98
2023-12-30T09:44:31.000Z,1006.01
2023-12-30T09:45:30.963Z,1006.01
2023-12-30T09:46:30.953Z,1005.95
2023-12-30T09:47:31.136Z,1005.98
2023-12-30T09:48:31.127Z,1006.04
2023-12-30T09:49:30.959Z,1006.05
2023-12-30T09:50:30.935Z,1006.08
2023-12-30T09:51:31.635Z,1006.04
2023-12-30T09:52:30.998Z,1006.08
2023-12-30T09:53:30.896Z,1006.15
2023-12-30T09:54:38.791Z,1006.14
2023-12-30T09:55:32.010Z,1006.13
2023-12-30T09:56:30.845Z,1006.15
2023-12-30T09:57:30.845Z,1006.17
2023-12-30T09:58:30.821Z,1006.22
2023-12-30T09:59:30.797Z,1006.19
2023-12-30T10:00:30.840Z,1006.30
2023-12-30T10:01:30.847Z,1006.27
2023-12-30T10:02:30.808Z,1006.21
2023-12-30T10:03:30.808Z,1006.17
2023-12-30T10:04:30.873Z,1006.17
2023-12-30T10:05:30.805Z,1006.14
2023-12-30T10:06:30.750Z,1006.15
2023-12-30T10:07:30.776Z,1006.10
2023-12-30T10:08:30.706Z,1006.16
2023-12-30T10:09:30.706Z,1006.16
2023-12-30T10:10:30.700Z,1006.15
2023-12-30T10:11:30.681Z,1006.16
2023-12-30T10:12:30.660Z,1006.06
2023-12-30T10:13:30.688Z,1006.15
2023-12-30T10:14:30.631Z,1006.09
2023-12-30T10:15:30.626Z,1006.14
2023-12-30T10:16:30.721Z,1006.23
2023-12-30T10:17:30.654Z,1006.19
2023-12-30T10:18:30.649Z,1006.14
2023-12-30T10:19:30.618Z,1006.10
2023-12-30T10:20:30.578Z,1006.23
2023-12-30T10:21:30.552Z,1006.16
2023-12-30T10:22:30.636Z,1006.15
2023-12-30T10:23:30.531Z,1006.18
2023-12-30T10:24:30.537Z,1006.13
2023-12-30T10:25:30.542Z,1006.22
2023-12-30T10:26:30.497Z,1006.17
2023-12-30T10:27:30.533Z,1006.16
2023-12-30T10:28:30.551Z,1006.20
2023-12-30T10:29:30.472Z,1006.18
2023-12-30T10:30:30.516Z,1006.12
2023-12-30T10:31:30.474Z,1006.07
2023-12-30T10:32:30.521Z,1006.19
2023-12-30T10:33:30.537Z,1006.16
2023-12-30T10:34:30.479Z,1006.12
2023-12-30T10:35:30.492Z,1006.15
2023-12-30T10:36:30.391Z,1006.14
2023-12-30T10:37:30.401Z,1006.17
2023-12-30T10:38:30.450Z,1006.20
2023-12-30T10:39:30.360Z,1006.18
2023-12-30T10:40:30.401Z,1006.14
2023-12-30T10:41:30.342Z,1006.17
2023-12-30T10:42:30.320Z,1006.18
2023-12-30T10:43:30.343Z,1006.20
2023-12-30T10:44:30.294Z,1006.15
2023-12-30T10:45:30.292Z,1006.18
2023-12-30T10:46:30.282Z,1006.15
2023-12-30T10:47:30.295Z,1006.17
2023-12-30T10:48:30.324Z,1006.16
2023-12-30T10:49:30.286Z,1006.14
2023-12-30T10:50:30.427Z,1006.14
2023-12-30T10:51:30.218Z,1006.12
2023-12-30T10:52:30.262Z,1006.12
2023-12-30T10:53:30.271Z,1006.14
2023-12-30T10:54:30.310Z,1006.26
2023-12-30T10:55:30.167Z,1006.14
2023-12-30T10:56:30.174Z,1006.12
2023-12-30T10:57:30.155Z,1006.11
2023-12-30T10:58:30.165Z,1006.09
2023-12-30T10:59:30.135Z,1006.08
2023-12-30T11:00:30.157Z,1006.04
2023-12-30T11:01:30.211Z,1006.10
2023-12-30T11:02:30.110Z,1006.10
2023-12-30T11:03:30.099Z,1006.14
2023-12-30T11:04:30.128Z,1006.15
2023-12-30T11:05:30.123Z,1006.12
2023-12-30T11:06:30.228Z,1006.13
2023-12-30T11:07:30.042Z,1006.13
2023-12-30T11:08:30.066Z,1006.17
2023-12-30T11:09:30.033Z,1006.24
2023-12-30T11:10:30.217Z,1006.22
2023-12-30T11:11:29.991Z,1006.21
2023-12-30T11:12:29.978Z,1006.24
2023-12-30T11:13:30.031Z,1006.24
2023-12-30T11:14:29.980Z,1006.20
2023-12-30T11:15:30.221Z,1006.20
2023-12-30T11:16:29.982Z,1006.19
2023-12-30T11:17:29.941Z,1006.15
2023-12-30T11:18:30.012Z,1006.14
2023-12-30T11:19:30.423Z,1006.11
2023-12-30T11:20:29.905Z,1006.13
2023-12-30T11:21:29.968Z,1006.13
2023-12-30T11:22:29.927Z,1006.21
2023-12-30T11:23:29.855Z,1006.20
2023-12-30T11:24:29.846Z,1006.16
2023-12-30T11:25:29.903Z,1006.21
2023-12-30T11:26:29.954Z,1006.19
2023-12-30T11:27:29.815Z,1006.17
2023-12-30T11:28:29.880Z,1006.18
2023-12-30T11:29:30.209Z,1006.16
2023-12-30T11:30:29.933Z,1006.16
2023-12-30T11:31:29.872Z,1006.26
2023-12-30T11:32:29.816Z,1006.25
2023-12-30T11:33:29.865Z,1006.16
2023-12-30T11:34:29.772Z,1006.16
2023-12-30T11:35:29.719Z,1006.18
2023-12-30T11:36:29.799Z,1006.14
2023-12-30T11:37:29.696Z,1006.16
2023-12-30T11:38:29.689Z,1006.04
2023-12-30T11:39:29.847Z,1006.09
2023-12-30T11:40:29.759Z,1006.09
2023-12-30T11:41:29.673Z,1006.04
2023-12-30T11:42:37.692Z,1006.06
2023-12-30T11:43:30.701Z,1005.99
2023-12-30T11:44:29.710Z,1006.03
2023-12-30T11:45:29.654Z,1006.04
2023-12-30T11:46:29.657Z,1005.96
2023-12-30T11:47:29.655Z,1006.04
2023-12-30T11:48:29.700Z,1006.01
2023-12-30T11:49:29.926Z,1006.02
2023-12-30T11:50:29.614Z,1006.04
2023-12-30T11:51:29.599Z,1006.02
2023-12-30T11:52:29.670Z,1006.02
2023-12-30T11:53:29.528Z,1005.94
2023-12-30T11:54:29.522Z,1005.99
2023-12-30T11:55:29.536Z,1005.94
2023-12-30T11:56:29.662Z,1005.86
2023-12-30T11:57:29.482Z,1005.81
2023-12-30T11:58:29.628Z,1005.87
2023-12-30T11:59:29.477Z,1005.79
2023-12-30T12:00:29.460Z,1005.71
2023-12-30T12:01:29.734Z,1005.75
2023-12-30T12:02:29.462Z,1005.69
2023-12-30T12:03:29.409Z,1005.74
2023-12-30T12:04:29.429Z,1005.62
2023-12-30T12:05:29.406Z,1005.62
2023-12-30T12:06:29.427Z,1005.58